Time;durP1;ratioP1;P1;durP2;ratioP2;P2;SDS_P1;SDS_P2;PMS_P1;PMS_P2;Temp;Humidity;BMP_temperature;BMP_pressure;BME280_temperature;BME280_humidity;BME280_pressure;Samples;Min_cycle;Max_cycle;Signal;HPM_P1;HPM_P2
2021/11/20 00:01:12;;;;;;;22.95;11.80;;;8.40;81.00;;;;;;5122447;27;20127;-86
2021/11/20 00:03:43;;;;;;;19.40;10.77;;;8.40;81.00;;;;;;5097198;28;20429;-87
2021/11/20 00:06:09;;;;;;;19.92;11.02;;;8.40;81.10;;;;;;5090171;28;20047;-85
2021/11/20 00:08:35;;;;;;;23.63;11.00;;;8.40;81.30;;;;;;5102987;27;20096;-86
2021/11/20 00:11:05;;;;;;;27.85;10.95;;;8.30;81.30;;;;;;5116189;28;20567;-87
2021/11/20 00:13:33;;;;;;;24.38;11.23;;;8.30;81.40;;;;;;5102410;28;20036;-86
2021/11/20 00:16:02;;;;;;;30.55;11.75;;;8.30;81.20;;;;;;5117021;28;20106;-86
2021/11/20 00:18:30;;;;;;;24.15;10.25;;;8.30;81.10;;;;;;5120360;28;20081;-86
2021/11/20 00:20:58;;;;;;;21.23;10.85;;;8.40;81.20;;;;;;5098775;28;20027;-86
2021/11/20 00:23:31;;;;;;;15.05;9.00;;;8.30;81.00;;;;;;5120551;28;20019;-87
2021/11/20 00:25:59;;;;;;;19.30;9.02;;;8.30;80.90;;;;;;5116685;27;20110;-88
2021/11/20 00:29:25;;;;;;;25.95;10.93;;;8.30;81.00;;;;;;5117195;28;20071;-87
2021/11/20 00:31:42;;;;;;;21.92;10.30;;;8.30;81.10;;;;;;5114724;28;20092;-87
2021/11/20 00:34:11;;;;;;;24.35;10.57;;;8.30;81.00;;;;;;5117264;27;20102;-87
2021/11/20 00:36:36;;;;;;;23.25;10.20;;;8.30;80.90;;;;;;5121204;27;20026;-87
2021/11/20 00:39:04;;;;;;;25.20;11.00;;;8.30;80.90;;;;;;5137970;27;20473;-87
2021/11/20 00:41:30;;;;;;;22.85;10.82;;;8.30;80.70;;;;;;5119499;28;20104;-86
2021/11/20 00:43:56;;;;;;;29.70;11.40;;;8.20;81.00;;;;;;5116966;28;20102;-86
2021/11/20 00:46:25;;;;;;;34.40;13.43;;;8.20;81.00;;;;;;5119778;28;20024;-86
2021/11/20 00:48:52;;;;;;;27.85;13.25;;;8.20;81.00;;;;;;5104690;27;20028;-86
2021/11/20 00:51:31;;;;;;;26.27;12.80;;;8.20;81.10;;;;;;5138187;27;20051;-87
2021/11/20 00:53:57;;;;;;;33.67;13.65;;;8.20;81.10;;;;;;5113767;28;20069;-87
2021/11/20 00:56:25;;;;;;;38.90;14.10;;;8.20;80.90;;;;;;5116077;28;20035;-87
2021/11/20 00:58:51;;;;;;;28.67;12.18;;;8.20;80.70;;;;;;5121092;27;20030;-87
2021/11/20 01:01:31;;;;;;;28.02;12.43;;;8.20;80.90;;;;;;5127120;27;20038;-86
2021/11/20 01:03:57;;;;;;;24.85;11.00;;;8.20;81.00;;;;;;5101798;28;20087;-87
2021/11/20 01:06:23;;;;;;;23.05;10.65;;;8.10;81.00;;;;;;5097955;27;20441;-86
2021/11/20 01:08:51;;;;;;;21.67;10.90;;;8.20;81.00;;;;;;5118655;28;20015;-86
2021/11/20 01:11:31;;;;;;;22.42;12.18;;;8.20;80.90;;;;;;5098590;28;20043;-86
2021/11/20 01:14:01;;;;;;;20.58;10.80;;;8.10;81.00;;;;;;5116778;28;20370;-86
2021/11/20 01:16:28;;;;;;;19.70;10.55;;;8.10;80.90;;;;;;5100624;28;20435;-86
2021/11/20 01:18:55;;;;;;;19.48;10.55;;;8.10;81.00;;;;;;5098049;28;20937;-86
2021/11/20 01:21:21;;;;;;;21.55;10.52;;;8.10;80.90;;;;;;5135029;27;20058;-86
2021/11/20 01:23:48;;;;;;;25.52;11.93;;;8.00;81.10;;;;;;5136871;27;20025;-87
2021/11/20 01:26:16;;;;;;;31.35;10.35;;;8.00;81.20;;;;;;5139429;27;20019;-86
2021/11/20 01:28:43;;;;;;;25.80;10.95;;;8.00;81.30;;;;;;5118183;27;20061;-86
2021/11/20 01:31:12;;;;;;;22.50;10.38;;;8.00;81.20;;;;;;5102659;27;20046;-86
2021/11/20 01:33:40;;;;;;;21.98;10.52;;;8.00;81.30;;;;;;5079816;28;20024;-86
2021/11/20 01:36:07;;;;;;;22.30;10.23;;;8.00;81.20;;;;;;5096496;28;20091;-86
2021/11/20 01:38:34;;;;;;;23.50;11.38;;;8.00;81.10;;;;;;5098029;28;20150;-86
2021/11/20 01:41:00;;;;;;;27.10;10.85;;;7.90;81.10;;;;;;5113685;28;20054;-87
2021/11/20 01:43:26;;;;;;;20.92;10.20;;;8.00;81.20;;;;;;5118757;28;20054;-87
2021/11/20 01:46:17;;;;;;;17.25;10.30;;;7.90;80.90;;;;;;5115976;28;20028;-87
2021/11/20 01:49:04;;;;;;;24.55;11.43;;;7.90;80.90;;;;;;5119132;28;20087;-85
2021/11/20 01:51:41;;;;;;;25.58;11.80;;;7.90;81.20;;;;;;5115707;28;20528;-86
2021/11/20 01:54:15;;;;;;;25.30;11.30;;;7.90;81.10;;;;;;5117282;28;20024;-87
2021/11/20 01:56:53;;;;;;;19.52;9.15;;;7.90;81.00;;;;;;5107921;28;20032;-87
2021/11/20 01:59:47;;;;;;;21.17;11.07;;;7.90;81.00;;;;;;5094088;28;20417;-87
2021/11/20 02:02:25;;;;;;;18.73;10.60;;;7.80;81.00;;;;;;5096611;28;20032;-88
2021/11/20 02:05:31;;;;;;;19.67;11.23;;;7.80;81.10;;;;;;5078059;28;20024;-86
2021/11/20 02:08:06;;;;;;;19.92;10.40;;;7.80;81.10;;;;;;5075711;28;20062;-87
2021/11/20 02:11:06;;;;;;;21.52;11.43;;;7.80;81.00;;;;;;5098240;28;20020;-86
2021/11/20 02:13:33;;;;;;;16.92;10.02;;;7.80;81.10;;;;;;5140662;27;20039;-87
2021/11/20 02:16:05;;;;;;;28.08;11.45;;;7.70;81.20;;;;;;5140417;27;20042;-86
2021/11/20 02:18:35;;;;;;;23.45;11.40;;;7.70;80.90;;;;;;5143787;27;20100;-86
2021/11/20 02:21:13;;;;;;;;;;;7.70;81.20;;;;;;5130819;27;20114;-88
2021/11/20 02:23:38;;;;;;;20.10;10.07;;;7.80;81.40;;;;;;5122918;28;19904;-88
2021/11/20 02:26:04;;;;;;;30.45;12.55;;;7.90;81.30;;;;;;5104413;28;20026;-86
2021/11/20 02:28:30;;;;;;;25.45;12.05;;;8.00;81.20;;;;;;5121693;27;20028;-86
2021/11/20 02:30:58;;;;;;;28.42;10.38;;;8.00;81.10;;;;;;5119995;28;20072;-86
2021/11/20 02:33:37;;;;;;;25.73;11.13;;;8.10;81.20;;;;;;5119593;28;20015;-87
2021/11/20 02:36:12;;;;;;;24.63;12.18;;;8.00;81.70;;;;;;5119426;27;20077;-86
2021/11/20 02:38:58;;;;;;;24.80;11.50;;;8.00;81.80;;;;;;5105982;28;20046;-87
2021/11/20 02:41:26;;;;;;;27.13;11.30;;;7.90;82.10;;;;;;5114223;28;20040;-87
2021/11/20 02:43:56;;;;;;;26.30;11.60;;;7.90;82.20;;;;;;5119552;28;20366;-86
2021/11/20 02:46:26;;;;;;;24.55;11.38;;;7.90;82.30;;;;;;5136432;27;20023;-88
2021/11/20 02:48:52;;;;;;;26.20;12.30;;;7.90;82.40;;;;;;5121337;27;20031;-86
2021/11/20 02:51:24;;;;;;;26.50;11.60;;;7.80;82.90;;;;;;5123760;27;20054;-86
2021/11/20 02:53:56;;;;;;;28.05;11.38;;;7.90;82.70;;;;;;5098917;28;20107;-86
2021/11/20 02:56:25;;;;;;;23.58;12.20;;;8.00;82.50;;;;;;5098586;28;20031;-86
2021/11/20 02:58:52;;;;;;;23.73;11.63;;;8.10;82.40;;;;;;5101674;28;20484;-86
2021/11/20 03:01:19;;;;;;;31.48;11.77;;;8.00;82.50;;;;;;5099074;27;20020;-86
2021/11/20 03:03:46;;;;;;;26.80;11.30;;;8.10;82.60;;;;;;5083311;28;20058;-87
2021/11/20 03:06:12;;;;;;;24.55;11.93;;;8.00;82.80;;;;;;5098513;28;20076;-87
2021/11/20 03:08:38;;;;;;;26.23;12.40;;;8.00;82.80;;;;;;5084640;28;20448;-86
2021/11/20 03:11:05;;;;;;;29.90;12.38;;;8.00;82.70;;;;;;5103862;27;20023;-87
2021/11/20 03:16:21;;;;;;;22.88;10.15;;;8.00;83.30;;;;;;5104161;27;20039;-86
2021/11/20 03:18:47;;;;;;;25.77;12.18;;;8.00;83.20;;;;;;5098007;28;20028;-86
2021/11/20 03:21:16;;;;;;;29.23;12.80;;;8.00;83.20;;;;;;5099261;28;20128;-86
2021/11/20 03:23:53;;;;;;;31.13;13.40;;;8.20;82.90;;;;;;5100126;27;20020;-87
2021/11/20 03:26:19;;;;;;;28.17;13.43;;;8.10;82.70;;;;;;5103612;28;20458;-87
2021/11/20 03:28:44;;;;;;;27.30;11.52;;;8.10;83.00;;;;;;5114440;27;20038;-86
2021/11/20 03:31:13;;;;;;;26.92;11.82;;;8.10;83.30;;;;;;5141318;27;20027;-87
2021/11/20 03:33:39;;;;;;;32.65;12.88;;;8.00;83.60;;;;;;5109854;28;20058;-87
2021/11/20 03:36:05;;;;;;;31.17;14.85;;;8.00;83.80;;;;;;5079785;28;20024;-87
2021/11/20 03:38:30;;;;;;;32.95;13.73;;;8.20;83.30;;;;;;5100497;28;20109;-86
2021/11/20 03:40:56;;;;;;;34.50;13.50;;;8.20;83.00;;;;;;5079740;28;20060;-85
2021/11/20 03:43:23;;;;;;;30.55;13.02;;;8.20;82.90;;;;;;5133185;27;20046;-86
2021/11/20 03:45:49;;;;;;;32.63;14.93;;;8.20;83.30;;;;;;5108158;28;20027;-87
2021/11/20 03:48:15;;;;;;;33.00;14.48;;;8.20;83.00;;;;;;5119220;28;20027;-86
2021/11/20 03:50:43;;;;;;;30.58;13.68;;;8.20;82.90;;;;;;5096647;28;20032;-86
2021/11/20 03:53:09;;;;;;;34.25;13.95;;;8.20;82.80;;;;;;5097663;28;20050;-87
2021/11/20 03:55:40;;;;;;;33.50;14.68;;;8.20;83.20;;;;;;5100194;28;20035;-86
2021/11/20 03:58:08;;;;;;;31.83;13.68;;;8.20;83.10;;;;;;5096800;28;20046;-87
2021/11/20 04:00:44;;;;;;;36.67;15.38;;;8.10;82.80;;;;;;5082927;28;20030;-86
2021/11/20 04:03:12;;;;;;;29.55;13.00;;;8.20;83.10;;;;;;5088372;28;20036;-86
2021/11/20 04:05:38;;;;;;;27.40;13.80;;;8.20;83.00;;;;;;5098755;28;20020;-87
2021/11/20 04:08:04;;;;;;;35.47;13.52;;;8.20;83.10;;;;;;5097330;28;20030;-87
2021/11/20 04:10:38;;;;;;;33.88;15.48;;;8.20;82.90;;;;;;5079372;28;20020;-87
2021/11/20 04:13:04;;;;;;;32.10;14.13;;;8.30;82.70;;;;;;5081211;28;20032;-87
2021/11/20 04:15:29;;;;;;;33.22;14.35;;;8.20;82.80;;;;;;5095621;28;20084;-87
2021/11/20 04:17:55;;;;;;;27.95;13.75;;;8.30;82.80;;;;;;5105456;27;20127;-87
2021/11/20 04:20:23;;;;;;;30.80;14.13;;;8.30;82.60;;;;;;5096047;28;20039;-88
2021/11/20 04:22:50;;;;;;;23.20;10.88;;;8.30;82.50;;;;;;5099750;28;20016;-87
2021/11/20 04:25:18;;;;;;;29.75;12.60;;;8.40;82.40;;;;;;5096819;28;20456;-87
2021/11/20 04:27:46;;;;;;;31.77;13.45;;;8.30;82.30;;;;;;5088666;28;20408;-87
2021/11/20 04:30:13;;;;;;;28.30;12.40;;;8.30;82.40;;;;;;5098839;28;20438;-86
2021/11/20 04:32:39;;;;;;;22.52;11.13;;;8.30;82.40;;;;;;5078041;28;20428;-85
2021/11/20 04:35:07;;;;;;;24.23;10.73;;;8.20;82.70;;;;;;5099933;28;20413;-86
2021/11/20 04:37:33;;;;;;;24.65;11.32;;;8.00;83.30;;;;;;5103951;27;20503;-86
2021/11/20 04:39:59;;;;;;;28.10;12.57;;;8.00;83.30;;;;;;5121454;27;20446;-86
2021/11/20 04:42:26;;;;;;;26.48;11.88;;;8.10;83.20;;;;;;5137573;27;20054;-86
2021/11/20 04:44:57;;;;;;;22.88;9.93;;;8.20;83.00;;;;;;5119792;27;20526;-86
2021/11/20 04:47:23;;;;;;;24.77;12.25;;;8.00;83.00;;;;;;5118395;28;20042;-86
2021/11/20 04:49:48;;;;;;;28.63;12.27;;;8.00;82.80;;;;;;5129093;27;20023;-86
2021/11/20 04:52:15;;;;;;;29.05;12.77;;;8.10;83.20;;;;;;5140260;27;20055;-86
2021/11/20 04:54:41;;;;;;;25.20;11.18;;;8.10;83.30;;;;;;5119328;27;20485;-87
2021/11/20 04:57:06;;;;;;;30.25;12.18;;;8.10;83.00;;;;;;5103913;28;20059;-87
2021/11/20 04:59:32;;;;;;;30.13;11.00;;;8.20;82.90;;;;;;5077925;28;20130;-87
2021/11/20 05:01:58;;;;;;;28.25;11.50;;;8.10;83.00;;;;;;5079203;28;20130;-87
2021/11/20 05:04:24;;;;;;;33.50;11.48;;;8.00;83.00;;;;;;5103273;27;20105;-87
2021/11/20 05:06:49;;;;;;;22.08;10.18;;;8.00;83.20;;;;;;5118707;27;20023;-88
2021/11/20 05:09:15;;;;;;;26.13;11.45;;;7.90;83.40;;;;;;5122188;27;20028;-87
2021/11/20 05:11:43;;;;;;;26.77;11.32;;;8.00;83.70;;;;;;5116764;27;20042;-87
2021/11/20 05:14:09;;;;;;;18.33;7.88;;;7.90;83.70;;;;;;5119604;28;20026;-87
2021/11/20 05:16:38;;;;;;;24.63;11.48;;;7.90;83.10;;;;;;5116564;28;20036;-88
2021/11/20 05:19:07;;;;;;;23.67;10.15;;;8.00;83.50;;;;;;5118055;28;20047;-88
2021/11/20 05:21:33;;;;;;;26.00;11.50;;;7.90;83.20;;;;;;5119624;27;20126;-88
2021/11/20 05:24:00;;;;;;;24.92;11.15;;;7.90;83.50;;;;;;5118731;27;20072;-89
2021/11/20 05:26:26;;;;;;;26.92;11.60;;;7.90;83.30;;;;;;5127533;27;20054;-87
2021/11/20 05:29:30;;;;;;;25.73;11.57;;;7.90;83.40;;;;;;5116737;28;20020;-87
2021/11/20 05:31:43;;;;;;;25.50;11.30;;;8.00;83.30;;;;;;5116088;28;20103;-86
2021/11/20 05:34:09;;;;;;;22.58;10.52;;;7.90;83.40;;;;;;5097763;28;20062;-87
2021/11/20 05:36:36;;;;;;;29.00;11.73;;;7.90;83.40;;;;;;5100926;28;20031;-86
2021/11/20 05:39:04;;;;;;;26.75;11.65;;;8.00;83.30;;;;;;5114800;28;20081;-86
2021/11/20 05:41:30;;;;;;;30.15;12.85;;;8.00;83.00;;;;;;5116060;28;20031;-86
2021/11/20 05:43:57;;;;;;;28.40;12.20;;;8.00;83.00;;;;;;5100841;28;20024;-87
2021/11/20 05:46:25;;;;;;;27.70;12.00;;;8.00;83.00;;;;;;5116081;28;20366;-87
2021/11/20 05:48:51;;;;;;;27.70;10.98;;;8.00;83.10;;;;;;5100668;28;20047;-87
2021/11/20 05:51:18;;;;;;;26.48;11.10;;;7.90;83.30;;;;;;5114237;28;20440;-88
2021/11/20 05:53:45;;;;;;;30.13;12.48;;;7.80;83.30;;;;;;5101241;28;20477;-87
2021/11/20 05:56:11;;;;;;;27.63;11.98;;;7.80;83.80;;;;;;5101333;28;20024;-88
2021/11/20 05:58:56;;;;;;;28.42;12.38;;;7.90;83.60;;;;;;5136465;28;20027;-86
2021/11/20 06:01:21;;;;;;;26.23;11.23;;;8.00;83.10;;;;;;5119756;28;20038;-88
2021/11/20 06:03:49;;;;;;;23.65;11.00;;;8.00;83.00;;;;;;5126284;28;20497;-87
2021/11/20 06:06:15;;;;;;;27.23;11.00;;;8.10;82.90;;;;;;5117205;28;20027;-88
2021/11/20 06:08:41;;;;;;;24.13;11.38;;;8.10;82.70;;;;;;5115607;28;20031;-88
2021/11/20 06:11:07;;;;;;;24.52;12.90;;;8.00;82.60;;;;;;5100567;28;20028;-87
2021/11/20 06:13:33;;;;;;;31.08;11.88;;;7.90;83.00;;;;;;5115811;28;20020;-86
2021/11/20 06:16:02;;;;;;;24.42;10.55;;;7.80;83.20;;;;;;5117348;28;20024;-88
2021/11/20 06:18:27;;;;;;;27.63;12.85;;;7.90;83.40;;;;;;5117237;28;20020;-88
2021/11/20 06:20:55;;;;;;;24.48;11.98;;;7.90;83.40;;;;;;5093752;28;20081;-87
2021/11/20 06:23:22;;;;;;;27.33;11.95;;;8.00;83.00;;;;;;5097771;28;20024;-87
2021/11/20 06:25:48;;;;;;;23.27;10.95;;;8.00;83.20;;;;;;5127493;28;20059;-87
2021/11/20 06:28:13;;;;;;;23.38;10.35;;;8.00;83.20;;;;;;5139323;28;20031;-87
2021/11/20 06:30:39;;;;;;;29.13;12.73;;;8.00;82.90;;;;;;5127105;28;20023;-88
2021/11/20 06:33:10;;;;;;;29.67;11.88;;;8.00;83.10;;;;;;5098973;28;20023;-88
2021/11/20 06:35:37;;;;;;;31.13;14.20;;;7.90;83.20;;;;;;5115538;28;20032;-88
2021/11/20 06:38:04;;;;;;;26.70;11.60;;;8.00;83.00;;;;;;5113074;28;20099;-87
2021/11/20 06:40:37;;;;;;;29.83;11.73;;;8.00;82.70;;;;;;5118651;28;20028;-87
2021/11/20 06:43:04;;;;;;;30.98;11.80;;;8.00;82.70;;;;;;5115679;28;20024;-86
2021/11/20 06:45:34;;;;;;;30.83;14.23;;;8.00;83.10;;;;;;5118638;28;20028;-86
2021/11/20 06:48:00;;;;;;;28.02;14.23;;;8.10;83.10;;;;;;5093974;28;20028;-89
2021/11/20 06:50:29;;;;;;;26.95;10.90;;;8.10;82.80;;;;;;5096852;28;20070;-87
2021/11/20 06:52:55;;;;;;;30.65;14.02;;;8.00;82.40;;;;;;5077549;28;20099;-86
2021/11/20 06:55:21;;;;;;;27.45;12.45;;;8.10;82.70;;;;;;5096911;28;20070;-84
2021/11/20 07:35:40;;;;;;;23.20;11.15;;;6.50;88.40;;;;;;5071992;28;20379;-86
2021/11/20 07:38:08;;;;;;;22.58;11.73;;;6.60;88.50;;;;;;5057931;28;20617;-87
2021/11/20 07:40:36;;;;;;;27.85;12.68;;;7.00;87.70;;;;;;5057496;28;20032;-86
2021/11/20 07:43:02;;;;;;;33.28;14.52;;;7.20;86.70;;;;;;5056065;28;20472;-83
2021/11/20 07:45:28;;;;;;;29.38;13.05;;;7.50;86.00;;;;;;5046098;28;20139;-87
2021/11/20 07:47:54;;;;;;;29.88;12.40;;;7.60;85.50;;;;;;5050884;28;21421;-86
2021/11/20 07:50:21;;;;;;;30.70;14.48;;;7.80;85.10;;;;;;5039171;28;20032;-87
2021/11/20 07:52:48;;;;;;;30.48;15.70;;;7.90;84.60;;;;;;5032512;28;20025;-88
2021/11/20 07:55:16;;;;;;;27.00;13.93;;;7.90;83.90;;;;;;5033387;28;20511;-88
2021/11/20 07:57:41;;;;;;;31.73;14.80;;;8.00;83.90;;;;;;5044455;28;20128;-80
2021/11/20 08:00:14;;;;;;;34.45;13.98;;;8.00;84.10;;;;;;5046186;28;20079;-83
2021/11/20 08:02:40;;;;;;;28.67;12.90;;;8.00;83.50;;;;;;5033655;28;20518;-81
2021/11/20 08:05:07;;;;;;;27.73;12.05;;;8.00;83.60;;;;;;5042102;28;20101;-79
2021/11/20 08:07:35;;;;;;;29.25;12.90;;;8.00;83.20;;;;;;5030384;28;20129;-81
2021/11/20 08:10:02;;;;;;;34.60;14.80;;;8.00;82.80;;;;;;5048676;28;20033;-81
2021/11/20 08:12:27;;;;;;;25.67;12.45;;;8.00;82.90;;;;;;5046210;28;20037;-79
2021/11/20 08:14:53;;;;;;;29.58;12.50;;;8.10;83.00;;;;;;5045703;28;20036;-77
2021/11/20 08:17:21;;;;;;;31.15;14.55;;;8.00;82.70;;;;;;5047052;28;20025;-82
2021/11/20 08:21:45;;;;;;;28.63;13.50;;;8.10;82.60;;;;;;5060776;28;20873;-78
2021/11/20 08:24:12;;;;;;;23.77;11.80;;;8.00;82.40;;;;;;5059634;28;20422;-79
2021/11/20 08:26:39;;;;;;;25.85;12.95;;;8.10;82.50;;;;;;5062175;28;20039;-80
2021/11/20 08:29:07;;;;;;;29.15;13.80;;;8.10;82.50;;;;;;5084182;28;20388;-79
2021/11/20 08:31:34;;;;;;;31.67;14.38;;;8.10;82.40;;;;;;5093432;28;20025;-77
2021/11/20 08:34:01;;;;;;;30.08;13.88;;;8.20;82.40;;;;;;5064653;28;20021;-78
2021/11/20 08:36:27;;;;;;;32.33;15.07;;;8.20;81.70;;;;;;5066475;28;20032;-78
2021/11/20 08:38:53;;;;;;;33.60;15.00;;;8.20;82.00;;;;;;5071351;28;20032;-79
2021/11/20 08:41:18;;;;;;;35.47;15.13;;;8.30;81.60;;;;;;5070531;28;20024;-78
2021/11/20 08:43:45;;;;;;;32.67;14.05;;;8.30;81.30;;;;;;5069432;28;20017;-77
2021/11/20 08:46:11;;;;;;;30.60;12.32;;;8.30;81.10;;;;;;5065891;28;20502;-78
2021/11/20 08:48:38;;;;;;;33.78;13.85;;;8.40;80.80;;;;;;5067595;28;20020;-83
2021/11/20 08:51:16;;;;;;;28.02;13.35;;;8.30;80.50;;;;;;5071170;28;20024;-78
2021/11/20 08:53:42;;;;;;;33.80;16.48;;;8.30;80.40;;;;;;5065690;28;20052;-76
2021/11/20 08:56:09;;;;;;;34.05;15.98;;;8.30;80.70;;;;;;5065470;28;20112;-78
2021/11/20 08:58:36;;;;;;;33.20;14.90;;;8.40;80.70;;;;;;5070254;28;20032;-78
2021/11/20 09:01:05;;;;;;;33.70;14.02;;;8.50;80.50;;;;;;5077615;28;20024;-80
2021/11/20 09:03:44;;;;;;;34.22;15.57;;;8.50;80.20;;;;;;5066507;28;20600;-82
2021/11/20 09:06:37;;;;;;;32.40;14.85;;;8.50;80.10;;;;;;5068910;28;20040;-81
2021/11/20 09:09:33;;;;;;;37.58;16.48;;;8.60;80.00;;;;;;5063186;28;20143;-81
2021/11/20 09:12:02;;;;;;;32.55;14.73;;;8.60;79.80;;;;;;5050754;28;20040;-81
2021/11/20 09:14:36;;;;;;;25.88;13.18;;;8.70;79.90;;;;;;5067694;28;20799;-81
2021/11/20 09:17:03;;;;;;;30.63;14.40;;;8.70;79.70;;;;;;5066078;28;20032;-81
2021/11/20 09:19:35;;;;;;;30.00;14.80;;;8.70;80.10;;;;;;5068243;28;20040;-81
2021/11/20 09:22:03;;;;;;;30.13;13.32;;;8.90;79.80;;;;;;5069325;28;20055;-81
2021/11/20 09:24:34;;;;;;;27.13;12.43;;;8.80;78.80;;;;;;5066231;28;20028;-81
2021/11/20 09:26:59;;;;;;;24.25;12.88;;;8.80;78.80;;;;;;5062679;28;20036;-80
2021/11/20 09:29:28;;;;;;;28.42;12.63;;;8.80;78.80;;;;;;5068216;28;20116;-80
2021/11/20 09:31:54;;;;;;;20.67;11.25;;;8.90;79.00;;;;;;5059044;28;20051;-81
2021/11/20 09:34:21;;;;;;;24.85;10.68;;;8.90;78.60;;;;;;5051703;28;20104;-80
2021/11/20 09:36:50;;;;;;;27.00;11.43;;;8.80;77.60;;;;;;5053148;28;20020;-80
2021/11/20 09:39:17;;;;;;;25.85;11.95;;;8.80;78.20;;;;;;5045709;28;20026;-79
2021/11/20 09:42:02;;;;;;;21.48;11.25;;;8.70;78.30;;;;;;5048991;28;20036;-78
2021/11/20 09:44:29;;;;;;;25.48;12.45;;;8.80;78.70;;;;;;5039661;28;20029;-78
2021/11/20 09:47:06;;;;;;;26.30;11.98;;;8.90;78.70;;;;;;5063427;28;20073;-79
2021/11/20 09:49:39;;;;;;;23.13;11.63;;;9.00;78.40;;;;;;5055978;28;20479;-78
2021/11/20 09:52:06;;;;;;;23.85;11.50;;;9.10;78.50;;;;;;5055561;28;20379;-79
2021/11/20 09:54:38;;;;;;;28.70;13.02;;;9.20;78.00;;;;;;5048507;28;20028;-80
2021/11/20 09:57:15;;;;;;;27.60;12.52;;;9.20;76.90;;;;;;5051096;28;20017;-80
2021/11/20 09:59:50;;;;;;;28.45;12.85;;;9.20;77.80;;;;;;5047699;28;20044;-80
2021/11/20 10:02:44;;;;;;;23.75;10.52;;;9.30;77.10;;;;;;5052135;28;20589;-80
2021/11/20 10:05:10;;;;;;;24.50;11.20;;;9.10;76.80;;;;;;5082091;28;20029;-80
2021/11/20 10:07:47;;;;;;;23.42;11.50;;;9.10;77.40;;;;;;5051397;28;20040;-80
2021/11/20 10:10:24;;;;;;;25.25;12.25;;;9.10;77.50;;;;;;5053324;28;20029;-80
2021/11/20 10:13:11;;;;;;;20.55;10.20;;;9.20;77.30;;;;;;5052098;28;20101;-81
2021/11/20 10:16:02;;;;;;;22.35;10.50;;;9.10;76.50;;;;;;5047715;28;20116;-80
2021/11/20 10:18:53;;;;;;;18.17;9.90;;;8.90;77.10;;;;;;5046234;28;20568;-83
2021/11/20 10:21:30;;;;;;;27.15;11.68;;;8.90;77.40;;;;;;5052908;28;20041;-87
2021/11/20 10:24:31;;;;;;;19.20;10.23;;;9.00;77.50;;;;;;5051569;28;20033;-84
2021/11/20 10:27:09;;;;;;;24.38;11.00;;;9.10;77.00;;;;;;5049438;28;20168;-78
2021/11/20 10:29:48;;;;;;;23.58;10.20;;;9.20;77.00;;;;;;5043313;28;20037;-78
2021/11/20 10:32:18;;;;;;;22.23;10.30;;;9.30;77.00;;;;;;5054509;28;20060;-83
2021/11/20 10:34:53;;;;;;;21.17;11.80;;;9.30;76.90;;;;;;5052928;28;20037;-76
2021/11/20 10:37:39;;;;;;;20.35;10.63;;;9.40;76.60;;;;;;5036082;28;20412;-84
2021/11/20 10:40:24;;;;;;;19.75;10.13;;;9.30;76.10;;;;;;5035896;28;20061;-82
2021/11/20 10:43:06;;;;;;;24.58;10.27;;;9.40;76.00;;;;;;5035835;28;20056;-83
2021/11/20 10:45:41;;;;;;;21.85;10.90;;;9.30;75.50;;;;;;5055518;28;20436;-83
2021/11/20 10:48:21;;;;;;;19.33;10.18;;;9.20;75.90;;;;;;5074456;28;20024;-82
2021/11/20 10:50:54;;;;;;;24.57;11.63;;;9.20;75.80;;;;;;5076044;28;20093;-83
2021/11/20 10:53:54;;;;;;;19.60;10.48;;;9.20;75.80;;;;;;5055126;28;20048;-83
2021/11/20 10:56:32;;;;;;;21.23;10.75;;;9.30;75.90;;;;;;5051309;28;20075;-81
2021/11/20 10:59:06;;;;;;;21.48;10.43;;;9.30;75.80;;;;;;5035644;28;20136;-77
2021/11/20 11:02:05;;;;;;;20.80;10.35;;;9.30;76.00;;;;;;5067736;28;20029;-80
2021/11/20 11:04:55;;;;;;;23.70;11.95;;;9.40;75.60;;;;;;5068141;28;20064;-78
2021/11/20 11:07:53;;;;;;;23.35;11.07;;;9.40;76.20;;;;;;5036030;28;20459;-82
2021/11/20 11:10:33;;;;;;;22.25;11.48;;;9.60;76.30;;;;;;5069777;28;20400;-82
2021/11/20 11:13:17;;;;;;;20.55;9.90;;;9.70;75.90;;;;;;5051618;28;20033;-88
2021/11/20 11:16:20;;;;;;;18.63;9.77;;;9.80;74.40;;;;;;5055513;28;20035;-87
2021/11/20 11:19:28;;;;;;;18.23;8.82;;;9.80;74.20;;;;;;5052279;28;20067;-78
2021/11/20 11:22:05;;;;;;;18.88;9.32;;;9.70;74.00;;;;;;5041275;28;20053;-86
2021/11/20 11:24:50;;;;;;;18.15;9.55;;;9.70;74.40;;;;;;5039120;28;20175;-86
2021/11/20 11:27:41;;;;;;;13.27;7.15;;;9.60;74.10;;;;;;5053924;28;20033;-85
2021/11/20 11:30:28;;;;;;;19.35;9.25;;;9.60;74.10;;;;;;5054591;28;20052;-79
2021/11/20 11:32:54;;;;;;;20.40;10.18;;;9.60;73.90;;;;;;5050022;28;20060;-81
2021/11/20 11:35:26;;;;;;;20.33;11.23;;;9.70;74.50;;;;;;5035285;28;20452;-85
2021/11/20 11:38:16;;;;;;;19.85;9.48;;;9.80;74.30;;;;;;5035367;28;20021;-81
2021/11/20 11:40:45;;;;;;;19.13;10.00;;;10.00;74.00;;;;;;5035299;28;20029;-82
2021/11/20 11:43:40;;;;;;;20.60;10.60;;;9.90;73.90;;;;;;5033890;28;20033;-83
2021/11/20 11:46:12;;;;;;;18.38;9.80;;;10.00;73.90;;;;;;5060362;28;20032;-83
2021/11/20 11:49:02;;;;;;;16.30;9.27;;;9.90;72.90;;;;;;5051938;28;20040;-82
2021/11/20 11:51:58;;;;;;;15.35;8.30;;;9.90;73.40;;;;;;5035357;28;20057;-81
2021/11/20 11:54:45;;;;;;;17.90;10.35;;;9.90;73.10;;;;;;5034538;28;20029;-84
2021/11/20 11:57:14;;;;;;;25.45;11.93;;;10.00;73.70;;;;;;5034888;28;20036;-79
2021/11/20 11:59:42;;;;;;;16.67;9.02;;;10.00;73.80;;;;;;5033758;28;20047;-87
2021/11/20 12:02:25;;;;;;;19.60;8.90;;;10.00;73.40;;;;;;5040213;28;20507;-81
2021/11/20 12:04:54;;;;;;;20.10;10.48;;;10.00;73.10;;;;;;5048265;28;20029;-87
2021/11/20 12:07:46;;;;;;;14.27;8.32;;;9.90;73.50;;;;;;5042753;28;20025;-80
2021/11/20 12:10:12;;;;;;;20.50;9.35;;;9.90;73.40;;;;;;5046689;28;20033;-84
2021/11/20 12:12:51;;;;;;;18.52;9.50;;;9.90;73.70;;;;;;5044247;28;20095;-81
2021/11/20 12:15:16;;;;;;;20.35;10.52;;;10.00;73.40;;;;;;5048525;28;20029;-82
2021/11/20 12:17:57;;;;;;;20.15;9.85;;;10.10;73.60;;;;;;5047625;28;20056;-83
2021/11/20 12:20:42;;;;;;;16.65;8.00;;;10.10;72.50;;;;;;5050711;28;20042;-81
2021/11/20 12:23:50;;;;;;;13.88;9.18;;;10.10;72.90;;;;;;5042622;28;20025;-85
2021/11/20 12:26:25;;;;;;;13.95;8.05;;;10.00;72.50;;;;;;5046430;28;20034;-78
2021/11/20 12:28:50;;;;;;;23.80;12.52;;;9.90;72.60;;;;;;5049559;28;20013;-81
2021/11/20 12:31:40;;;;;;;26.38;13.25;;;10.00;73.10;;;;;;5049627;28;20112;-77
2021/11/20 12:34:43;;;;;;;21.73;11.27;;;10.00;73.10;;;;;;5040747;28;20053;-80
2021/11/20 12:37:28;;;;;;;20.50;11.07;;;10.10;73.30;;;;;;5036598;28;20511;-74
2021/11/20 12:40:12;;;;;;;17.60;8.65;;;10.20;72.50;;;;;;5050595;28;20017;-80
2021/11/20 12:43:02;;;;;;;17.02;8.27;;;10.20;71.90;;;;;;5037633;28;20099;-82
2021/11/20 12:45:37;;;;;;;;;;;10.30;72.00;;;;;;5043077;28;20044;-76
2021/11/20 12:48:20;;;;;;;15.38;8.52;;;10.30;72.00;;;;;;5049121;28;19908;-80
2021/11/20 12:50:52;;;;;;;16.90;8.35;;;10.20;71.20;;;;;;5046829;28;20030;-77
2021/11/20 12:53:26;;;;;;;15.50;8.55;;;10.20;71.90;;;;;;5050085;28;20025;-79
2021/11/20 12:56:17;;;;;;;17.98;9.13;;;10.20;72.20;;;;;;5053365;28;20039;-78
2021/11/20 12:58:45;;;;;;;14.65;8.57;;;10.20;72.20;;;;;;5046342;28;20028;-77
2021/11/20 13:01:15;;;;;;;17.73;8.93;;;10.20;71.80;;;;;;5047209;28;20040;-77
2021/11/20 13:03:43;;;;;;;;;;;10.20;71.40;;;;;;5048040;28;20084;-77
2021/11/20 13:06:31;;;;;;;17.13;8.55;;;10.20;71.50;;;;;;5046711;28;20355;-77
2021/11/20 13:09:05;;;;;;;15.85;7.28;;;10.30;71.20;;;;;;5050179;28;20033;-77
2021/11/20 13:11:32;;;;;;;16.63;8.63;;;10.40;71.10;;;;;;5049685;28;20025;-77
2021/11/20 13:14:16;;;;;;;15.02;7.80;;;10.30;71.30;;;;;;5051510;28;20037;-77
2021/11/20 13:17:09;;;;;;;14.93;8.48;;;10.20;71.50;;;;;;5053072;28;20048;-77
2021/11/20 13:19:43;;;;;;;18.38;9.35;;;10.20;71.00;;;;;;5048958;28;20043;-77
2021/11/20 13:22:27;;;;;;;19.83;8.48;;;10.30;70.90;;;;;;5050518;28;20442;-77
2021/11/20 13:24:59;;;;;;;18.20;8.75;;;10.30;71.30;;;;;;5054602;28;20024;-77
2021/11/20 13:27:43;;;;;;;17.15;9.18;;;10.50;71.20;;;;;;5050255;28;20017;-78
2021/11/20 13:30:15;;;;;;;20.15;9.10;;;10.40;70.00;;;;;;5047802;28;20032;-77
2021/11/20 13:32:48;;;;;;;17.02;9.15;;;10.40;70.30;;;;;;5056182;28;20025;-76
2021/11/20 13:35:15;;;;;;;19.23;10.40;;;10.40;70.50;;;;;;5052595;28;20040;-78
2021/11/20 13:37:41;;;;;;;25.02;12.73;;;10.50;70.50;;;;;;5050148;28;20086;-78
2021/11/20 13:40:07;;;;;;;19.85;10.15;;;10.60;70.30;;;;;;5048047;28;20033;-77
2021/11/20 13:42:37;;;;;;;17.08;8.98;;;10.60;70.80;;;;;;5047384;28;20021;-77
2021/11/20 13:45:06;;;;;;;15.63;8.15;;;10.60;69.90;;;;;;5041978;28;20036;-77
2021/11/20 13:47:33;;;;;;;13.60;7.88;;;10.50;69.90;;;;;;5042459;28;20622;-77